Terminal Aerodrome Forecast
Issued by NWS Denver/Boulder, CO

Home | Current Version | Previous Version | Text Only | Print | Product List | Glossary On
Versions: 1 2 3 4 5 6 7 8 9 10 11 12 13 14 15 16 17 18 19 20 21 22 23 24 25 26 27 28 29 30 31 32 33 34 35 36 37
000
FTUS45 KBOU 192102 AAB
TAFDEN
TAF AMD
KDEN 192102Z 1921/2024 25009KT P6SM FEW120 SCT200
     FM192200 30011KT P6SM FEW110 SCT220
     FM200000 21010KT P6SM FEW110 SCT200
     FM201400 24007KT P6SM FEW120 SCT200
     FM201900 07005KT P6SM SCT110 BKN200=

USA.gov is the U.S. government's official web portal to all federal, state and local government web resources and services.